Time;durP1;ratioP1;P1;durP2;ratioP2;P2;SDS_P1;SDS_P2;PMS_P1;PMS_P2;Temp;Humidity;BMP_temperature;BMP_pressure;BME280_temperature;BME280_humidity;BME280_pressure;Samples;Min_cycle;Max_cycle;Signal;HPM_P1;HPM_P2
2022/05/06 00:01:35;;;;;;;;;;;;;;;17.46;54.57;101324.69;4998648;27;98360;-62
2022/05/06 00:04:02;;;;;;;;;;;;;;;17.42;54.49;101321.72;4999864;27;108849;-62
2022/05/06 00:06:29;;;;;;;;;;;;;;;17.41;54.54;101329.09;5002103;27;98171;-62
2022/05/06 00:08:55;;;;;;;;;;;;;;;17.38;54.53;101329.66;5002679;27;98487;-62
2022/05/06 00:11:21;;;;;;;;;;;;;;;17.36;54.53;101331.88;4996036;27;97983;-62
2022/05/06 00:13:47;;;;;;;;;;;;;;;17.34;54.48;101334.09;4983587;28;97933;-62
2022/05/06 00:16:13;;;;;;;;;;;;;;;17.33;54.48;101331.63;4984061;27;128026;-62
2022/05/06 00:18:39;;;;;;;;;;;;;;;17.31;54.61;101333.84;5002031;27;127855;-63
2022/05/06 00:21:05;;;;;;;;;;;;;;;17.29;54.66;101330.59;5000079;27;126677;-62
2022/05/06 00:23:31;;;;;;;;;;;;;;;17.27;54.58;101336.34;4981922;28;117400;-62
2022/05/06 00:25:57;;;;;;;;;;;;;;;17.27;54.68;101338.25;4981934;27;127508;-62
2022/05/06 00:28:23;;;;;;;;;;;;;;;17.25;54.52;101338.56;5002974;27;98849;-62
2022/05/06 00:30:48;;;;;;;;;;;;;;;17.24;54.58;101341.56;5001339;27;127605;-62
2022/05/06 00:33:14;;;;;;;;;;;;;;;17.23;54.77;101331.78;5002059;27;115784;-62
2022/05/06 00:35:43;;;;;;;;;;;;;;;17.22;54.51;101335.59;5001643;27;98352;-62
2022/05/06 00:38:09;;;;;;;;;;;;;;;17.22;54.70;101335.59;4999042;27;98414;-62
2022/05/06 00:40:35;;;;;;;;;;;;;;;17.21;54.56;101342.13;5000272;27;97961;-63
2022/05/06 00:43:01;;;;;;;;;;;;;;;17.20;54.57;101341.34;5001621;27;117637;-62
2022/05/06 00:45:31;;;;;;;;;;;;;;;17.18;54.55;101338.91;4999424;27;128109;-62
2022/05/06 00:47:57;;;;;;;;;;;;;;;17.17;54.66;101337.28;4982924;27;126707;-62
2022/05/06 00:50:23;;;;;;;;;;;;;;;17.15;54.50;101331.31;4962893;28;127926;-62
2022/05/06 00:52:48;;;;;;;;;;;;;;;17.15;54.50;101330.50;4982517;27;115448;-62
2022/05/06 00:55:14;;;;;;;;;;;;;;;17.13;54.62;101329.97;4981351;28;129003;-63
2022/05/06 00:57:40;;;;;;;;;;;;;;;17.12;54.43;101331.06;4976929;27;128006;-62
2022/05/06 01:00:19;;;;;;;;;;;;;;;17.09;54.51;101337.91;4998673;27;127203;-62
2022/05/06 01:02:46;;;;;;;;;;;;;;;17.08;54.57;101341.75;5002467;27;98121;-63
2022/05/06 01:05:12;;;;;;;;;;;;;;;17.06;54.53;101338.50;5001924;27;102858;-63
2022/05/06 01:07:38;;;;;;;;;;;;;;;17.04;54.65;101343.41;4990046;27;98315;-63
2022/05/06 01:10:05;;;;;;;;;;;;;;;17.03;54.63;101347.25;4982139;28;97885;-65
2022/05/06 01:12:31;;;;;;;;;;;;;;;17.00;54.70;101345.09;4979822;28;98017;-63
2022/05/06 01:14:56;;;;;;;;;;;;;;;16.98;54.52;101344.59;4979674;28;98060;-62
2022/05/06 01:17:22;;;;;;;;;;;;;;;16.96;54.63;101340.53;4990827;27;127154;-62
2022/05/06 01:19:48;;;;;;;;;;;;;;;16.95;54.58;101347.06;5000663;27;98726;-63
2022/05/06 01:22:15;;;;;;;;;;;;;;;16.91;54.68;101350.38;5001579;27;117755;-63
2022/05/06 01:24:41;;;;;;;;;;;;;;;16.89;54.70;101357.19;5000493;27;99339;-62
2022/05/06 01:27:16;;;;;;;;;;;;;;;16.86;54.45;101357.78;4993433;27;98285;-63
2022/05/06 01:29:42;;;;;;;;;;;;;;;16.83;54.51;101356.44;4980291;27;122780;-62
2022/05/06 01:32:08;;;;;;;;;;;;;;;16.82;54.75;101354.00;4995480;27;116644;-63
2022/05/06 01:34:34;;;;;;;;;;;;;;;16.79;54.77;101343.69;4979742;28;105880;-62
2022/05/06 01:37:02;;;;;;;;;;;;;;;16.77;54.63;101364.94;4979582;28;98841;-63
2022/05/06 01:39:34;;;;;;;;;;;;;;;16.74;54.55;101369.06;4973897;27;99891;-63
2022/05/06 01:42:04;;;;;;;;;;;;;;;16.72;54.63;101363.06;4981373;27;97868;-63
2022/05/06 01:44:35;;;;;;;;;;;;;;;16.70;54.62;101370.69;4979522;28;98677;-63
2022/05/06 01:47:01;;;;;;;;;;;;;;;16.67;54.64;101372.09;4981614;27;98492;-62
2022/05/06 01:49:29;;;;;;;;;;;;;;;16.64;54.66;101369.94;4992568;27;110434;-63
2022/05/06 01:51:56;;;;;;;;;;;;;;;16.62;54.69;101363.97;4983623;27;97996;-62
2022/05/06 01:54:21;;;;;;;;;;;;;;;16.60;54.81;101368.06;5001095;27;98048;-63
2022/05/06 01:56:47;;;;;;;;;;;;;;;16.57;54.81;101364.00;5000562;27;127518;-62
2022/05/06 01:59:13;;;;;;;;;;;;;;;16.56;54.63;101372.47;4987877;27;126684;-63
2022/05/06 02:01:39;;;;;;;;;;;;;;;16.54;54.81;101371.91;4996978;27;116717;-62
2022/05/06 02:06:50;;;;;;;;;;;;;;;16.48;54.94;101368.44;4989692;27;98181;-62
2022/05/06 02:09:16;;;;;;;;;;;;;;;16.46;54.67;101362.47;4980319;28;127203;-62
2022/05/06 02:11:42;;;;;;;;;;;;;;;16.44;54.72;101367.38;4984982;27;97900;-63
2022/05/06 02:14:08;;;;;;;;;;;;;;;16.42;54.63;101364.94;4979862;28;122391;-62
2022/05/06 02:16:34;;;;;;;;;;;;;;;16.40;54.90;101369.88;4978566;28;126662;-62
2022/05/06 02:19:01;;;;;;;;;;;;;;;16.36;54.79;101366.09;4989030;27;128356;-62
2022/05/06 02:21:27;;;;;;;;;;;;;;;16.35;54.81;101364.47;5001599;27;97729;-62
2022/05/06 02:23:53;;;;;;;;;;;;;;;16.33;54.79;101379.44;4999051;27;127603;-62
2022/05/06 02:26:19;;;;;;;;;;;;;;;16.30;54.83;101369.94;4981706;27;127158;-62
2022/05/06 02:28:44;;;;;;;;;;;;;;;16.28;54.75;101374.88;4986961;27;128416;-62
2022/05/06 02:33:55;;;;;;;;;;;;;;;16.24;54.72;101386.59;4999262;27;97949;-63
2022/05/06 02:36:21;;;;;;;;;;;;;;;16.21;54.98;101382.53;5000751;27;98556;-63
2022/05/06 02:38:47;;;;;;;;;;;;;;;16.20;54.81;101386.34;4999323;27;123264;-63
2022/05/06 02:41:15;;;;;;;;;;;;;;;16.17;54.81;101384.19;4998707;27;97912;-63
2022/05/06 02:43:42;;;;;;;;;;;;;;;16.14;55.09;101387.47;5000466;27;99443;-62
2022/05/06 02:46:08;;;;;;;;;;;;;;;16.13;55.01;101388.56;5000482;27;98824;-62
2022/05/06 02:48:34;;;;;;;;;;;;;;;16.10;54.85;101387.22;4999713;27;127036;-64
2022/05/06 02:51:00;;;;;;;;;;;;;;;16.08;54.87;101389.41;4998575;27;101172;-62
2022/05/06 02:53:26;;;;;;;;;;;;;;;16.06;54.83;101382.63;4997428;27;128501;-62
2022/05/06 02:55:52;;;;;;;;;;;;;;;16.05;54.76;101383.72;5000682;27;99196;-62
2022/05/06 02:58:18;;;;;;;;;;;;;;;16.02;54.78;101381.56;4998464;27;128460;-62
2022/05/06 03:00:44;;;;;;;;;;;;;;;16.00;54.74;101375.59;4999056;27;116103;-62
2022/05/06 03:03:10;;;;;;;;;;;;;;;15.97;55.26;101385.13;4998092;27;97931;-62
2022/05/06 03:05:36;;;;;;;;;;;;;;;15.96;54.81;101380.78;4999049;27;128544;-62
2022/05/06 03:08:01;;;;;;;;;;;;;;;15.93;55.00;101381.34;4999249;27;118755;-63
2022/05/06 03:10:27;;;;;;;;;;;;;;;15.92;55.15;101380.53;4998106;27;117554;-62
2022/05/06 03:12:58;;;;;;;;;;;;;;;15.89;54.89;101375.66;4994019;27;127691;-63
2022/05/06 03:15:24;;;;;;;;;;;;;;;15.88;54.94;101382.19;5004251;27;99017;-63
2022/05/06 03:17:51;;;;;;;;;;;;;;;15.86;54.76;101383.56;5001896;27;124863;-63
2022/05/06 03:20:17;;;;;;;;;;;;;;;15.85;54.71;101384.66;5003625;27;116030;-63
2022/05/06 03:22:46;;;;;;;;;;;;;;;15.83;55.06;101381.41;4993563;27;128014;-62
2022/05/06 03:25:12;;;;;;;;;;;;;;;15.81;55.08;101378.16;4988252;27;99261;-62
2022/05/06 03:30:23;;;;;;;;;;;;;;;15.77;54.81;101386.06;5001075;27;98444;-62
2022/05/06 03:32:49;;;;;;;;;;;;;;;15.76;54.93;101386.31;4993995;27;122464;-63
2022/05/06 03:35:15;;;;;;;;;;;;;;;15.75;55.00;101398.28;4982547;27;98456;-63
2022/05/06 03:37:41;;;;;;;;;;;;;;;15.74;54.80;101389.34;4983689;28;115606;-63
2022/05/06 03:40:07;;;;;;;;;;;;;;;15.74;54.65;101388.53;4982580;28;97996;-62
2022/05/06 03:42:33;;;;;;;;;;;;;;;15.72;54.92;101391.53;4990458;27;99050;-64
2022/05/06 03:44:59;;;;;;;;;;;;;;;15.72;54.71;101399.69;4999056;27;128089;-62
2022/05/06 03:47:25;;;;;;;;;;;;;;;15.72;54.94;101394.25;4983416;27;98695;-62
2022/05/06 03:52:36;;;;;;;;;;;;;;;15.73;54.88;101397.78;4980445;28;98173;-62
2022/05/06 03:55:02;;;;;;;;;;;;;;;15.73;55.07;101400.50;4985966;27;127122;-62
2022/05/06 03:57:28;;;;;;;;;;;;;;;15.75;54.87;101403.72;5003234;27;109501;-62
2022/05/06 03:59:54;;;;;;;;;;;;;;;15.76;54.74;101410.78;5002356;27;116781;-62
2022/05/06 04:02:20;;;;;;;;;;;;;;;15.78;54.40;101419.50;4993446;27;114611;-62
2022/05/06 04:04:46;;;;;;;;;;;;;;;15.78;54.91;101423.00;4983844;27;128182;-62
2022/05/06 04:07:14;;;;;;;;;;;;;;;15.79;54.49;101415.66;5002219;27;98012;-64
2022/05/06 04:09:41;;;;;;;;;;;;;;;15.80;54.76;101422.72;5003167;27;98186;-63
2022/05/06 04:12:07;;;;;;;;;;;;;;;15.80;54.68;101414.56;4991634;27;98956;-62
2022/05/06 04:14:34;;;;;;;;;;;;;;;15.80;54.87;101412.69;4981586;28;124985;-62
2022/05/06 04:17:02;;;;;;;;;;;;;;;15.81;54.42;101425.19;5002456;27;98113;-63
2022/05/06 04:19:29;;;;;;;;;;;;;;;15.83;54.40;101428.41;5003084;27;97816;-62
2022/05/06 04:24:39;;;;;;;;;;;;;;;15.87;54.66;101436.84;5001831;27;98168;-62
2022/05/06 04:27:06;;;;;;;;;;;;;;;15.88;54.50;101439.28;4981987;27;125560;-63
2022/05/06 04:29:32;;;;;;;;;;;;;;;15.91;54.53;101438.72;4983366;28;97854;-62
2022/05/06 04:31:58;;;;;;;;;;;;;;;15.95;54.45;101439.81;4982256;28;125572;-62
2022/05/06 04:34:24;;;;;;;;;;;;;;;15.98;54.27;101437.59;4981634;28;127985;-62
2022/05/06 04:36:49;;;;;;;;;;;;;;;16.01;54.25;101453.38;4998819;27;128520;-62
2022/05/06 04:39:16;;;;;;;;;;;;;;;16.03;54.11;101453.88;5002014;27;115546;-62
2022/05/06 04:41:43;;;;;;;;;;;;;;;16.06;54.34;101453.31;4999075;27;98897;-63
2022/05/06 04:44:09;;;;;;;;;;;;;;;16.09;54.19;101453.59;4999397;27;100297;-62
2022/05/06 04:46:35;;;;;;;;;;;;;;;16.13;54.23;101457.38;4986183;27;127453;-62
2022/05/06 04:49:01;;;;;;;;;;;;;;;16.17;54.27;101458.44;4981355;27;118244;-62
2022/05/06 04:51:27;;;;;;;;;;;;;;;16.24;54.08;101462.75;5001137;27;128080;-63
2022/05/06 04:53:55;;;;;;;;;;;;;;;16.30;53.95;101456.19;5001388;27;126199;-62
2022/05/06 04:56:22;;;;;;;;;;;;;;;16.35;54.14;101456.97;4989131;27;98549;-61
2022/05/06 04:58:48;;;;;;;;;;;;;;;16.42;53.88;101462.09;4982266;28;97826;-62
2022/05/06 05:01:14;;;;;;;;;;;;;;;16.51;53.85;101465.03;4993225;27;127308;-63
2022/05/06 05:03:40;;;;;;;;;;;;;;;16.56;53.81;101465.81;5000361;27;127736;-64
2022/05/06 05:06:07;;;;;;;;;;;;;;;16.64;53.71;101467.09;4990923;27;126349;-62
2022/05/06 05:08:33;;;;;;;;;;;;;;;16.72;53.72;101477.38;4981754;27;97818;-62
2022/05/06 05:11:02;;;;;;;;;;;;;;;16.81;53.63;101477.63;4945417;28;126735;-62
2022/05/06 05:13:34;;;;;;;;;;;;;;;16.91;53.47;101475.63;4962875;28;98857;-62
2022/05/06 05:15:59;;;;;;;;;;;;;;;17.03;53.53;101475.25;4990066;27;98216;-63
2022/05/06 05:18:25;;;;;;;;;;;;;;;17.14;53.31;101479.50;5001054;27;117813;-62
2022/05/06 05:20:51;;;;;;;;;;;;;;;17.25;53.20;101485.69;5000718;27;127734;-62
2022/05/06 05:23:17;;;;;;;;;;;;;;;17.33;53.11;101489.66;5001746;27;112999;-62
2022/05/06 05:25:43;;;;;;;;;;;;;;;17.43;53.13;101489.56;4994292;27;127351;-62
2022/05/06 05:28:09;;;;;;;;;;;;;;;17.51;52.99;101488.94;4982013;28;97593;-62
2022/05/06 05:30:35;;;;;;;;;;;;;;;17.55;53.14;101487.25;4979707;28;127965;-62
2022/05/06 05:33:02;;;;;;;;;;;;;;;17.75;52.88;101488.97;4981977;27;98142;-62
2022/05/06 05:35:29;;;;;;;;;;;;;;;17.93;52.47;101492.06;4984117;27;98205;-62
2022/05/06 05:37:56;;;;;;;;;;;;;;;18.06;52.33;101496.78;4983716;27;98048;-62
2022/05/06 05:40:22;;;;;;;;;;;;;;;18.20;52.21;101500.41;4982031;27;100717;-63
2022/05/06 05:42:48;;;;;;;;;;;;;;;18.42;51.76;101499.03;4996996;27;126857;-62
2022/05/06 05:50:43;;;;;;;;;;;;;;;19.02;50.98;101494.56;4980211;28;97954;-62
2022/05/06 05:53:09;;;;;;;;;;;;;;;19.18;50.88;101503.31;4979762;28;98284;-62
2022/05/06 05:55:35;;;;;;;;;;;;;;;19.46;50.66;101500.63;4983322;27;126665;-62
2022/05/06 05:58:02;;;;;;;;;;;;;;;19.73;50.25;101492.47;5000687;27;117652;-62
2022/05/06 06:00:28;;;;;;;;;;;;;;;19.99;49.81;101497.38;4999502;27;98732;-62
2022/05/06 06:02:55;;;;;;;;;;;;;;;20.14;49.73;101501.72;4992553;27;125032;-62
2022/05/06 06:05:21;;;;;;;;;;;;;;;20.51;49.25;101503.38;4981826;27;97883;-63
2022/05/06 06:07:47;;;;;;;;;;;;;;;20.69;49.22;101498.88;5001541;27;97977;-64
2022/05/06 06:10:13;;;;;;;;;;;;;;;20.90;48.95;101502.72;5000432;27;100136;-63
2022/05/06 06:12:39;;;;;;;;;;;;;;;21.19;48.59;101502.28;4983741;27;126865;-62
2022/05/06 06:15:09;;;;;;;;;;;;;;;21.29;48.55;101504.72;4979392;28;128151;-63
2022/05/06 06:17:35;;;;;;;;;;;;;;;21.60;48.24;101492.16;5001243;27;98859;-63
2022/05/06 06:20:02;;;;;;;;;;;;;;;21.67;48.28;101496.06;4999709;27;128791;-62
2022/05/06 06:22:28;;;;;;;;;;;;;;;21.86;48.07;101505.97;5001103;27;98340;-63
2022/05/06 06:24:54;;;;;;;;;;;;;;;22.21;47.65;101507.69;4999544;27;126684;-63
2022/05/06 06:27:19;;;;;;;;;;;;;;;22.67;46.98;101508.97;4983597;27;97944;-63
2022/05/06 06:29:49;;;;;;;;;;;;;;;23.22;46.61;101510.22;4980113;28;98995;-63
2022/05/06 06:32:16;;;;;;;;;;;;;;;23.70;46.41;101515.44;4993330;27;99386;-63
2022/05/06 06:34:42;;;;;;;;;;;;;;;23.83;46.30;101513.56;5000384;27;98209;-63
2022/05/06 06:37:08;;;;;;;;;;;;;;;24.12;46.23;101515.50;4985038;27;111127;-63
2022/05/06 06:39:34;;;;;;;;;;;;;;;24.41;45.97;101517.44;4979481;28;127141;-63
2022/05/06 06:41:59;;;;;;;;;;;;;;;25.07;45.54;101513.91;4979881;27;127095;-63
2022/05/06 06:44:25;;;;;;;;;;;;;;;25.62;45.16;101515.44;4977048;28;127366;-63
2022/05/06 06:46:53;;;;;;;;;;;;;;;25.68;45.22;101522.31;4985082;27;118139;-63
2022/05/06 06:49:19;;;;;;;;;;;;;;;25.93;45.31;101531.44;4987531;27;98331;-64
2022/05/06 06:51:45;;;;;;;;;;;;;;;25.80;45.79;101526.28;4986867;27;99428;-63
2022/05/06 06:54:11;;;;;;;;;;;;;;;26.01;45.41;101512.31;5005252;27;127679;-64
2022/05/06 06:56:37;;;;;;;;;;;;;;;26.57;44.73;101521.56;5007039;27;117401;-63
2022/05/06 06:59:03;;;;;;;;;;;;;;;27.08;44.45;101519.03;5005790;27;99096;-64
2022/05/06 07:01:32;;;;;;;;;;;;;;;27.57;44.05;101509.59;5006425;27;99068;-63
2022/05/06 07:04:00;;;;;;;;;;;;;;;28.13;43.71;101506.59;5006616;27;98619;-64
2022/05/06 07:11:58;;;;;;;;;;;;;;;28.96;43.66;101509.09;4984143;28;97857;-63
2022/05/06 07:14:25;;;;;;;;;;;;;;;29.52;42.80;101514.88;4986949;27;97840;-64
2022/05/06 07:16:52;;;;;;;;;;;;;;;30.15;42.43;101510.69;4987228;27;97856;-63
2022/05/06 07:19:20;;;;;;;;;;;;;;;30.22;42.38;101508.06;4991021;27;98900;-63
2022/05/06 07:21:46;;;;;;;;;;;;;;;30.04;43.16;101509.75;5006415;27;98499;-63
2022/05/06 07:24:12;;;;;;;;;;;;;;;30.22;42.92;101510.81;5006061;27;115536;-64
2022/05/06 07:26:38;;;;;;;;;;;;;;;30.57;42.03;101513.22;5006620;27;99079;-63
2022/05/06 07:29:04;;;;;;;;;;;;;;;30.99;41.61;101523.28;5005657;27;103168;-61
2022/05/06 07:31:30;;;;;;;;;;;;;;;30.91;42.13;101518.03;5003209;27;98243;-61
2022/05/06 07:33:55;;;;;;;;;;;;;;;31.16;41.82;101519.06;5005075;27;125191;-62
2022/05/06 07:36:23;;;;;;;;;;;;;;;31.49;41.55;101512.63;5004964;27;100595;-62
2022/05/06 07:38:49;;;;;;;;;;;;;;;31.66;41.13;101521.50;5006044;27;99081;-61
2022/05/06 07:41:15;;;;;;;;;;;;;;;32.14;40.80;101522.22;5003969;27;125351;-61
2022/05/06 07:43:41;;;;;;;;;;;;;;;32.73;40.30;101517.31;5005782;27;127297;-62
2022/05/06 07:46:09;;;;;;;;;;;;;;;33.03;40.16;101513.44;5005009;27;106011;-61
2022/05/06 07:48:36;;;;;;;;;;;;;;;33.51;39.81;101507.50;4989137;27;98732;-62
2022/05/06 07:51:02;;;;;;;;;;;;;;;33.85;38.33;101512.66;4986618;28;98400;-62
2022/05/06 07:53:28;;;;;;;;;;;;;;;33.83;37.72;101515.84;4986505;27;98219;-62
2022/05/06 07:55:54;;;;;;;;;;;;;;;33.90;36.46;101515.03;4986160;27;98066;-62
2022/05/06 07:58:20;;;;;;;;;;;;;;;34.38;34.71;101506.13;4983805;27;120560;-63
2022/05/06 08:00:46;;;;;;;;;;;;;;;35.00;33.70;101515.84;4989544;27;128853;-62
2022/05/06 08:05:59;;;;;;;;;;;;;;;36.20;31.59;101512.34;5002041;27;97726;-62
2022/05/06 08:08:30;;;;;;;;;;;;;;;36.70;30.69;101503.28;4997682;27;99469;-63
2022/05/06 08:10:56;;;;;;;;;;;;;;;37.26;30.35;101498.84;4982681;27;97820;-63
2022/05/06 08:13:22;;;;;;;;;;;;;;;37.86;29.57;101498.19;4982352;27;98180;-62
2022/05/06 08:15:49;;;;;;;;;;;;;;;38.46;28.62;101494.16;4982778;27;97637;-63
2022/05/06 08:18:15;;;;;;;;;;;;;;;39.17;28.01;101494.53;4982718;27;98400;-63
2022/05/06 08:20:41;;;;;;;;;;;;;;;39.75;27.65;101497.50;4982733;27;103968;-63
2022/05/06 08:23:08;;;;;;;;;;;;;;;40.20;26.89;101493.81;4981301;27;98869;-62
2022/05/06 08:25:34;;;;;;;;;;;;;;;40.73;26.48;101487.81;4982023;27;97722;-62
2022/05/06 08:28:00;;;;;;;;;;;;;;;41.51;25.61;101489.28;4982941;28;101163;-63
2022/05/06 08:30:26;;;;;;;;;;;;;;;42.17;24.88;101484.41;4982475;27;124522;-63
2022/05/06 08:32:52;;;;;;;;;;;;;;;42.72;25.12;101484.72;4980869;28;128985;-62
2022/05/06 08:35:19;;;;;;;;;;;;;;;43.07;24.27;101488.16;4981432;27;116735;-63
2022/05/06 08:37:46;;;;;;;;;;;;;;;43.71;23.87;101478.16;4983657;27;99159;-63
2022/05/06 08:40:22;;;;;;;;;;;;;;;44.56;23.29;101481.88;4983897;27;98274;-63
2022/05/06 08:42:48;;;;;;;;;;;;;;;45.28;22.84;101482.00;4981681;27;126902;-63
2022/05/06 08:50:53;;;;;;;;;;;;;;;45.61;22.54;101461.97;4984201;27;98494;-63
2022/05/06 08:53:20;;;;;;;;;;;;;;;43.80;23.38;101458.25;4983616;27;98401;-63
2022/05/06 08:55:52;;;;;;;;;;;;;;;44.49;22.27;101457.47;5002141;27;97912;-65
2022/05/06 08:58:18;;;;;;;;;;;;;;;45.30;21.47;101460.31;4991566;27;98593;-63
2022/05/06 09:00:44;;;;;;;;;;;;;;;45.81;21.24;101451.97;4989216;27;99452;-63
2022/05/06 09:03:12;;;;;;;;;;;;;;;46.09;20.87;101455.31;4981025;27;111827;-63
2022/05/06 09:05:54;;;;;;;;;;;;;;;46.53;20.33;101463.78;4982764;27;97813;-63
2022/05/06 09:08:20;;;;;;;;;;;;;;;47.12;20.42;101452.19;4981771;28;97811;-63
2022/05/06 09:11:08;;;;;;;;;;;;;;;47.04;20.49;101453.91;4983811;27;99004;-63
2022/05/06 09:13:35;;;;;;;;;;;;;;;46.06;20.90;101448.53;4988034;27;98146;-63
2022/05/06 09:16:44;;;;;;;;;;;;;;;45.42;20.97;101452.78;4981594;27;98022;-63
2022/05/06 09:19:19;;;;;;;;;;;;;;;45.01;20.99;101443.91;4981159;27;97846;-63
2022/05/06 09:22:38;;;;;;;;;;;;;;;45.07;20.87;101446.91;4981361;27;98787;-63
2022/05/06 09:24:57;;;;;;;;;;;;;;;45.42;20.70;101449.94;4980988;27;98388;-63
2022/05/06 09:27:23;;;;;;;;;;;;;;;45.66;20.64;101451.94;4981256;28;116565;-63
2022/05/06 09:29:50;;;;;;;;;;;;;;;42.84;22.15;101449.03;4978342;28;127248;-63
2022/05/06 09:32:29;;;;;;;;;;;;;;;44.20;20.64;101457.22;4981993;27;99462;-63
2022/05/06 09:35:09;;;;;;;;;;;;;;;45.74;19.45;101456.75;5000937;27;98270;-63
2022/05/06 09:37:37;;;;;;;;;;;;;;;45.24;19.80;101455.78;4998031;27;98052;-63
2022/05/06 09:40:10;;;;;;;;;;;;;;;43.60;20.62;101451.03;4987626;27;99127;-63
2022/05/06 09:42:43;;;;;;;;;;;;;;;45.65;19.13;101444.69;4977929;27;98474;-64
2022/05/06 09:45:10;;;;;;;;;;;;;;;44.08;20.21;101439.13;4978044;27;98291;-63
2022/05/06 09:47:37;;;;;;;;;;;;;;;44.92;19.61;101437.50;4977608;27;98239;-63
2022/05/06 09:50:05;;;;;;;;;;;;;;;43.47;20.82;101439.09;4978011;27;99078;-63
2022/05/06 09:52:31;;;;;;;;;;;;;;;41.03;22.01;101437.59;4979345;27;98236;-63
2022/05/06 09:54:57;;;;;;;;;;;;;;;39.34;22.84;101426.91;4976813;27;117463;-63
2022/05/06 09:57:23;;;;;;;;;;;;;;;38.04;23.24;101434.78;4976987;27;98262;-63
2022/05/06 09:59:50;;;;;;;;;;;;;;;37.21;23.26;101423.44;4978163;27;98475;-63
2022/05/06 10:02:17;;;;;;;;;;;;;;;36.01;23.98;101429.66;4980798;27;98426;-63
2022/05/06 10:04:43;;;;;;;;;;;;;;;34.89;24.63;101427.06;4975888;27;98188;-63
2022/05/06 10:07:13;;;;;;;;;;;;;;;33.94;25.41;101424.34;4978621;27;97989;-63
2022/05/06 10:09:51;;;;;;;;;;;;;;;33.04;25.46;101424.91;4977567;27;98121;-64
2022/05/06 10:12:17;;;;;;;;;;;;;;;32.23;26.19;101427.09;4979099;27;98282;-63
2022/05/06 10:14:44;;;;;;;;;;;;;;;31.55;26.33;101426.72;4974645;27;126822;-63
2022/05/06 10:17:09;;;;;;;;;;;;;;;30.96;26.87;101420.25;4976812;27;115960;-63
2022/05/06 10:19:38;;;;;;;;;;;;;;;30.44;26.65;101422.09;4974412;27;98079;-63
2022/05/06 10:22:05;;;;;;;;;;;;;;;29.96;26.95;101417.16;4976271;27;98400;-63
2022/05/06 10:24:41;;;;;;;;;;;;;;;29.62;27.14;101415.47;4977316;27;118194;-62
2022/05/06 10:33:14;;;;;;;;;;;;;;;34.68;23.59;101416.84;4974860;27;97989;-63
2022/05/06 10:35:44;;;;;;;;;;;;;;;36.36;22.63;101412.34;4976236;27;108922;-63
2022/05/06 10:38:23;;;;;;;;;;;;;;;37.63;22.19;101420.31;4978528;27;98050;-63
2022/05/06 10:40:56;;;;;;;;;;;;;;;38.78;21.42;101414.59;4976974;27;99407;-63
2022/05/06 10:43:40;;;;;;;;;;;;;;;39.74;21.17;101416.16;4976834;27;99330;-63
2022/05/06 10:46:07;;;;;;;;;;;;;;;40.62;20.96;101417.53;4976753;27;99852;-63
2022/05/06 10:48:33;;;;;;;;;;;;;;;40.37;21.32;101411.88;4977690;27;97909;-63
2022/05/06 10:51:21;;;;;;;;;;;;;;;41.30;21.17;101408.78;4976116;27;128763;-63
2022/05/06 10:53:47;;;;;;;;;;;;;;;41.55;21.04;101393.78;4976604;27;99579;-63
2022/05/06 10:56:14;;;;;;;;;;;;;;;41.72;21.15;101389.50;4977845;27;126026;-63
2022/05/06 10:58:40;;;;;;;;;;;;;;;42.59;20.27;101393.38;4977366;27;98400;-63
2022/05/06 11:01:13;;;;;;;;;;;;;;;40.17;22.05;101383.88;4977811;27;98334;-63
2022/05/06 11:03:49;;;;;;;;;;;;;;;38.72;22.68;101381.78;4973740;27;117824;-63
2022/05/06 11:06:21;;;;;;;;;;;;;;;37.38;23.12;101373.00;4976559;27;116160;-63
2022/05/06 11:08:47;;;;;;;;;;;;;;;36.19;23.93;101373.31;4982375;27;98263;-63
2022/05/06 11:11:19;;;;;;;;;;;;;;;35.12;23.91;101367.69;4976269;27;128030;-63
2022/05/06 11:13:47;;;;;;;;;;;;;;;34.10;24.79;101362.41;4976532;27;98017;-63
2022/05/06 11:16:14;;;;;;;;;;;;;;;33.21;25.06;101369.06;4977687;27;98099;-63
2022/05/06 11:18:44;;;;;;;;;;;;;;;32.91;24.81;101360.28;4976889;27;97868;-63
2022/05/06 11:21:22;;;;;;;;;;;;;;;33.33;24.29;101364.25;4976197;27;98683;-64
2022/05/06 11:23:48;;;;;;;;;;;;;;;34.18;23.91;101371.56;4976146;27;99853;-63
2022/05/06 11:26:35;;;;;;;;;;;;;;;34.83;23.04;101369.16;4976331;27;98066;-63
2022/05/06 11:29:02;;;;;;;;;;;;;;;35.62;23.30;101372.00;4977217;27;117754;-63
2022/05/06 11:31:28;;;;;;;;;;;;;;;36.37;22.59;101369.03;4976702;27;98040;-63
2022/05/06 11:34:02;;;;;;;;;;;;;;;37.20;22.18;101367.69;4978181;27;98350;-63
2022/05/06 11:36:28;;;;;;;;;;;;;;;36.60;22.93;101365.50;4979885;27;116092;-63
2022/05/06 11:38:54;;;;;;;;;;;;;;;35.75;23.51;101366.66;4986376;27;98077;-63
2022/05/06 11:41:20;;;;;;;;;;;;;;;34.90;23.97;101371.91;4979393;27;98409;-63
2022/05/06 11:43:46;;;;;;;;;;;;;;;34.16;24.61;101366.38;4977862;27;98288;-63
2022/05/06 11:49:01;;;;;;;;;;;;;;;32.81;24.77;101364.66;4978552;27;97777;-63
2022/05/06 11:51:33;;;;;;;;;;;;;;;33.38;24.24;101363.84;4973935;27;128347;-63
2022/05/06 11:53:59;;;;;;;;;;;;;;;32.99;24.83;101370.28;4976301;27;118217;-63
2022/05/06 11:56:27;;;;;;;;;;;;;;;32.49;25.31;101368.22;4977468;27;98125;-63
2022/05/06 11:58:56;;;;;;;;;;;;;;;33.15;24.40;101365.06;4977965;27;98403;-63
2022/05/06 12:01:47;;;;;;;;;;;;;;;33.81;23.83;101367.31;4985406;27;98679;-63
2022/05/06 12:04:13;;;;;;;;;;;;;;;34.46;24.07;101362.19;4974045;27;128345;-63
2022/05/06 12:06:47;;;;;;;;;;;;;;;34.99;24.03;101358.22;4977564;27;126661;-62
2022/05/06 12:09:16;;;;;;;;;;;;;;;35.51;23.50;101360.91;4978259;27;115849;-62
2022/05/06 12:11:43;;;;;;;;;;;;;;;36.02;23.27;101359.09;4980907;27;98380;-64
2022/05/06 12:14:10;;;;;;;;;;;;;;;36.38;23.20;101358.59;4978811;27;99107;-63
2022/05/06 12:16:36;;;;;;;;;;;;;;;35.68;24.08;101358.31;4980302;27;98776;-63
2022/05/06 12:19:02;;;;;;;;;;;;;;;35.00;23.96;101350.63;4982025;27;97929;-63
2022/05/06 12:21:28;;;;;;;;;;;;;;;34.31;24.50;101346.69;4979828;27;101444;-63
2022/05/06 12:23:59;;;;;;;;;;;;;;;33.69;24.86;101351.00;4978899;27;98259;-62
2022/05/06 12:26:36;;;;;;;;;;;;;;;33.05;25.17;101339.94;4979160;27;98630;-63
2022/05/06 12:29:03;;;;;;;;;;;;;;;32.46;25.22;101338.34;4977464;27;97940;-62
2022/05/06 12:31:30;;;;;;;;;;;;;;;31.92;25.36;101337.38;4979282;27;99375;-63
2022/05/06 12:34:03;;;;;;;;;;;;;;;31.46;25.70;101337.13;4978709;27;99431;-63
2022/05/06 12:36:29;;;;;;;;;;;;;;;31.09;26.05;101331.69;4978350;27;98524;-63
2022/05/06 12:38:55;;;;;;;;;;;;;;;30.76;26.05;101333.44;4980523;27;97978;-63
2022/05/06 12:41:32;;;;;;;;;;;;;;;30.47;26.00;101338.72;4979701;27;104671;-62
2022/05/06 12:44:12;;;;;;;;;;;;;;;30.13;26.26;101329.59;4977567;27;102625;-62
2022/05/06 12:46:38;;;;;;;;;;;;;;;30.01;26.26;101325.09;4975716;27;125082;-63
2022/05/06 12:51:49;;;;;;;;;;;;;;;31.76;25.17;101329.34;4976644;27;98368;-63
2022/05/06 12:54:15;;;;;;;;;;;;;;;32.41;25.07;101323.97;4984117;27;121377;-63
2022/05/06 12:56:41;;;;;;;;;;;;;;;32.95;25.09;101327.59;4976920;27;127572;-63
2022/05/06 12:59:07;;;;;;;;;;;;;;;32.86;25.13;101330.78;4975882;27;116466;-63
2022/05/06 13:01:33;;;;;;;;;;;;;;;32.46;25.57;101329.16;4979011;27;98217;-63
2022/05/06 13:04:00;;;;;;;;;;;;;;;32.18;25.74;101324.31;4972632;27;99340;-63
2022/05/06 13:06:26;;;;;;;;;;;;;;;31.73;25.83;101327.31;4973019;27;98468;-63
2022/05/06 13:08:52;;;;;;;;;;;;;;;31.32;26.11;101329.50;4982898;27;115909;-63
2022/05/06 13:11:17;;;;;;;;;;;;;;;30.90;26.36;101330.00;4980967;27;128740;-63
2022/05/06 13:13:43;;;;;;;;;;;;;;;30.51;26.37;101324.88;4959477;28;128832;-63
2022/05/06 13:16:11;;;;;;;;;;;;;;;30.18;26.33;101328.47;4978506;27;126175;-63
2022/05/06 13:18:37;;;;;;;;;;;;;;;29.88;26.37;101332.09;4979751;27;98590;-63
2022/05/06 13:21:04;;;;;;;;;;;;;;;29.61;26.72;101322.25;4979088;27;98879;-63